createdAt,value
2023-03-01T00:02:13.318Z,19.30
2023-03-01T00:07:15.481Z,18.05
2023-03-01T00:12:17.604Z,13.48
2023-03-01T00:17:19.625Z,16.63
2023-03-01T00:22:21.661Z,14.05
2023-03-01T00:27:23.698Z,15.93
2023-03-01T00:32:25.860Z,15.85
2023-03-01T00:37:27.842Z,14.55
2023-03-01T00:42:29.883Z,12.27
2023-03-01T00:47:31.914Z,14.52
2023-03-01T00:52:33.911Z,14.23
2023-03-01T00:57:35.908Z,13.77
2023-03-01T01:02:37.981Z,14.75
2023-03-01T01:07:40.115Z,15.85
2023-03-01T01:12:42.101Z,15.68
2023-03-01T01:17:45.015Z,15.57
2023-03-01T01:22:46.985Z,13.00
2023-03-01T01:27:48.969Z,12.55
2023-03-01T01:32:50.980Z,15.38
2023-03-01T01:37:52.961Z,14.13
2023-03-01T01:42:54.924Z,12.93
2023-03-01T01:48:01.726Z,15.27
2023-03-01T01:53:03.769Z,15.18
2023-03-01T01:58:10.424Z,13.10
2023-03-01T02:03:20.220Z,12.95
2023-03-01T02:13:26.546Z,11.85
2023-03-01T02:18:28.660Z,14.23
2023-03-01T02:23:31.067Z,15.02
2023-03-01T02:28:45.229Z,17.10
2023-03-01T02:33:49.840Z,15.45
2023-03-01T02:38:54.868Z,17.23
2023-03-01T02:43:57.049Z,17.40
2023-03-01T02:49:00.365Z,15.05
2023-03-01T02:54:14.845Z,16.85
2023-03-01T02:59:23.498Z,15.43
2023-03-01T03:04:25.614Z,9.55
2023-03-01T03:09:27.638Z,13.52
2023-03-01T03:14:29.625Z,14.38
2023-03-01T03:19:31.618Z,14.18
2023-03-01T03:24:39.384Z,14.60
2023-03-01T03:29:41.545Z,12.07
2023-03-01T03:34:43.667Z,15.85
2023-03-01T03:39:45.684Z,15.50
2023-03-01T03:44:47.722Z,15.93
2023-03-01T03:49:49.718Z,6.85
2023-03-01T03:54:51.706Z,12.68
2023-03-01T03:59:53.665Z,14.13
2023-03-01T04:04:55.615Z,14.43
2023-03-01T04:09:57.627Z,15.00
2023-03-01T04:14:59.625Z,15.35
2023-03-01T04:20:06.916Z,15.23
2023-03-01T04:25:09.279Z,16.73
2023-03-01T04:30:12.185Z,14.85
2023-03-01T04:35:14.159Z,15.40
2023-03-01T04:40:17.885Z,15.77
2023-03-01T04:45:20.218Z,14.90
2023-03-01T04:50:23.003Z,16.05
2023-03-01T04:55:27.024Z,11.32
2023-03-01T05:00:29.073Z,13.95
2023-03-01T05:05:37.400Z,14.18
2023-03-01T05:10:42.124Z,12.70
2023-03-01T05:15:45.896Z,15.18
2023-03-01T05:25:51.885Z,12.63
2023-03-01T05:30:53.918Z,15.45
2023-03-01T05:35:56.049Z,14.57
2023-03-01T05:40:58.174Z,20.60
2023-03-01T05:46:01.197Z,17.52
2023-03-01T05:51:03.275Z,18.10
2023-03-01T05:56:05.975Z,16.00
2023-03-01T06:01:12.869Z,18.85
2023-03-01T06:06:14.900Z,22.13
2023-03-01T06:11:17.144Z,16.15
2023-03-01T06:16:19.322Z,12.85
2023-03-01T06:21:22.197Z,17.33
2023-03-01T06:26:24.969Z,14.35
2023-03-01T06:31:27.180Z,12.32
2023-03-01T06:36:29.330Z,21.65
2023-03-01T06:41:31.560Z,19.65
2023-03-01T06:46:34.473Z,18.30
2023-03-01T06:51:38.245Z,19.17
2023-03-01T06:56:40.753Z,14.93
2023-03-01T07:01:42.878Z,8.80
2023-03-01T07:06:45.098Z,15.10
2023-03-01T07:11:48.240Z,12.55
2023-03-01T07:16:50.491Z,6.93
2023-03-01T07:21:52.621Z,12.18
2023-03-01T07:26:54.992Z,18.30
2023-03-01T07:31:57.114Z,14.93
2023-03-01T07:36:59.274Z,11.75
2023-03-01T07:42:02.224Z,8.23
2023-03-01T07:47:07.682Z,12.40
2023-03-01T07:52:15.600Z,13.85
2023-03-01T07:57:18.271Z,10.68
2023-03-01T08:02:20.476Z,12.52
2023-03-01T08:07:22.544Z,10.32
2023-03-01T08:12:24.927Z,7.05
2023-03-01T08:17:27.189Z,9.55
2023-03-01T08:22:29.239Z,11.05
2023-03-01T08:27:31.284Z,5.63
2023-03-01T08:32:38.787Z,10.75
2023-03-01T08:37:40.817Z,7.20
2023-03-01T08:42:45.627Z,5.40
2023-03-01T08:47:52.180Z,7.45
2023-03-01T08:52:54.318Z,6.88
2023-03-01T08:57:57.072Z,5.97
2023-03-01T09:03:00.518Z,5.78
2023-03-01T09:08:02.967Z,6.35
2023-03-01T09:13:05.234Z,6.20
2023-03-01T09:18:07.398Z,5.97
2023-03-01T09:28:29.466Z,3.95
2023-03-01T09:33:36.000Z,4.70
2023-03-01T09:38:43.303Z,4.30
2023-03-01T09:44:02.486Z,6.07
2023-03-01T09:49:28.520Z,4.43
2023-03-01T09:54:32.966Z,4.20
2023-03-01T09:59:49.230Z,3.13
2023-03-01T10:04:55.891Z,8.60
2023-03-01T10:09:59.513Z,6.50
2023-03-01T10:15:20.744Z,6.30
2023-03-01T10:20:35.807Z,6.93
2023-03-01T10:25:54.279Z,9.82
2023-03-01T10:31:16.010Z,21.90
2023-03-01T10:36:53.031Z,7.57
2023-03-01T10:42:03.972Z,5.80
2023-03-01T10:47:24.968Z,5.93
2023-03-01T10:52:38.803Z,8.02
2023-03-01T10:57:44.969Z,5.50
2023-03-01T11:03:12.295Z,4.28
2023-03-01T11:08:18.457Z,8.30
2023-03-01T11:13:22.211Z,6.47
2023-03-01T11:18:46.294Z,5.65
2023-03-01T11:23:51.317Z,7.40
2023-03-01T11:29:00.414Z,8.40
2023-03-01T11:34:22.779Z,9.35
2023-03-01T11:39:57.417Z,4.00
2023-03-01T11:45:03.655Z,6.50
2023-03-01T11:50:18.246Z,6.13
2023-03-01T11:55:38.780Z,7.30
2023-03-01T12:00:50.663Z,10.90
2023-03-01T12:06:16.589Z,6.18
2023-03-01T12:11:34.193Z,11.55
2023-03-01T12:17:13.128Z,13.00
2023-03-01T12:22:32.845Z,7.90
2023-03-01T12:27:47.044Z,9.48
2023-03-01T12:33:11.458Z,6.78
2023-03-01T12:38:26.781Z,9.90
2023-03-01T12:44:07.714Z,8.65
2023-03-01T12:49:17.934Z,10.50
2023-03-01T12:54:38.892Z,5.55
2023-03-01T13:00:11.767Z,9.40
2023-03-01T13:05:26.337Z,6.68
2023-03-01T13:10:36.269Z,10.52
2023-03-01T13:15:40.816Z,9.63
2023-03-01T13:21:09.811Z,11.52
2023-03-01T13:26:15.687Z,11.35
2023-03-01T13:31:20.718Z,9.57
2023-03-01T13:36:37.671Z,11.52
2023-03-01T13:41:40.596Z,8.48
2023-03-01T13:46:45.925Z,9.93
2023-03-01T13:51:50.361Z,8.77
2023-03-01T13:56:53.094Z,9.15
2023-03-01T14:07:46.956Z,10.77
2023-03-01T14:13:14.513Z,7.22
2023-03-01T14:18:37.631Z,9.50
2023-03-01T14:23:46.591Z,7.43
2023-03-01T14:28:57.240Z,10.38
2023-03-01T14:34:02.548Z,10.10
2023-03-01T14:39:25.676Z,9.40
2023-03-01T14:44:28.289Z,11.30
2023-03-01T14:50:18.166Z,17.90
2023-03-01T15:00:38.406Z,14.45
2023-03-01T15:05:44.388Z,19.67
2023-03-01T15:17:37.616Z,12.30
2023-03-01T15:29:03.400Z,11.90
2023-03-01T15:34:26.745Z,11.73
2023-03-01T15:39:39.833Z,14.02
2023-03-01T15:44:47.813Z,9.68
2023-03-01T15:50:39.476Z,9.82
2023-03-01T15:55:46.977Z,10.38
2023-03-01T16:01:01.270Z,9.98
2023-03-01T16:06:05.923Z,12.65
2023-03-01T16:11:20.340Z,24.73
2023-03-01T16:16:32.743Z,21.00
2023-03-01T16:21:35.623Z,18.27
2023-03-01T16:26:39.365Z,16.08
2023-03-01T16:31:42.353Z,15.90
2023-03-01T16:36:45.503Z,14.50
2023-03-01T16:41:48.008Z,14.18
2023-03-01T16:51:54.555Z,21.25
2023-03-01T16:56:56.925Z,25.98
2023-03-01T17:02:17.419Z,31.80
2023-03-01T17:07:20.386Z,33.08
2023-03-01T17:12:26.042Z,31.55
2023-03-01T17:17:30.013Z,29.13
2023-03-01T17:22:40.160Z,26.73
2023-03-01T17:27:43.628Z,24.40
2023-03-01T17:33:02.445Z,21.85
2023-03-01T17:38:50.716Z,26.55
2023-03-01T17:43:55.344Z,23.92
2023-03-01T17:48:58.189Z,22.48
2023-03-01T17:54:01.342Z,21.90
2023-03-01T17:59:06.790Z,23.30
2023-03-01T18:04:15.509Z,22.20
2023-03-01T18:09:28.396Z,15.10
2023-03-01T18:14:46.259Z,23.85
2023-03-01T18:20:32.535Z,20.05
2023-03-01T18:25:44.024Z,25.70
2023-03-01T18:30:46.923Z,17.70
2023-03-01T18:41:00.050Z,18.00
2023-03-01T18:46:06.058Z,19.88
2023-03-01T18:51:20.778Z,18.65
2023-03-01T18:56:33.011Z,24.85
2023-03-01T19:06:46.686Z,23.52
2023-03-01T19:11:49.684Z,23.02
2023-03-01T19:16:53.782Z,19.58
2023-03-01T19:22:05.661Z,19.88
2023-03-01T19:27:11.463Z,21.65
2023-03-01T19:32:17.106Z,23.42
2023-03-01T19:37:20.252Z,21.20
2023-03-01T19:42:28.364Z,17.50
2023-03-01T19:47:31.652Z,22.95
2023-03-01T19:52:35.547Z,20.15
2023-03-01T19:57:39.291Z,20.27
2023-03-01T20:02:44.111Z,23.13
2023-03-01T20:07:48.416Z,22.20
2023-03-01T20:12:53.631Z,22.73
2023-03-01T20:17:58.248Z,22.13
2023-03-01T20:23:00.964Z,24.10
2023-03-01T20:28:05.150Z,27.90
2023-03-01T20:33:08.466Z,24.45
2023-03-01T20:38:11.552Z,21.70
2023-03-01T20:43:14.413Z,30.55
2023-03-01T20:48:17.519Z,26.35
2023-03-01T20:53:20.450Z,26.90
2023-03-01T20:58:25.249Z,26.63
2023-03-01T21:03:28.428Z,20.42
2023-03-01T21:13:38.769Z,23.85
2023-03-01T21:18:41.431Z,21.70
2023-03-01T21:23:44.496Z,23.83
2023-03-01T21:28:47.715Z,23.85
2023-03-01T21:33:55.519Z,22.40
2023-03-01T21:39:01.111Z,19.67
2023-03-01T21:44:06.414Z,21.63
2023-03-01T21:49:09.170Z,20.15
2023-03-01T21:54:13.823Z,21.92
2023-03-01T21:59:22.198Z,26.13
2023-03-01T22:04:25.305Z,25.38
2023-03-01T22:09:27.787Z,24.00
2023-03-01T22:14:31.738Z,21.15
2023-03-01T22:19:33.868Z,21.65
2023-03-01T22:24:36.047Z,23.38
2023-03-01T22:29:38.048Z,21.30
2023-03-01T22:34:40.061Z,19.25
2023-03-01T22:39:42.053Z,19.85
2023-03-01T22:44:44.135Z,18.98
2023-03-01T22:49:46.156Z,20.40
2023-03-01T22:54:48.247Z,21.88
2023-03-01T22:59:50.200Z,21.77
2023-03-01T23:04:54.416Z,21.35
2023-03-01T23:10:00.623Z,20.58
2023-03-01T23:15:02.713Z,22.10
2023-03-01T23:20:10.638Z,20.80
2023-03-01T23:30:16.463Z,21.23
2023-03-01T23:35:18.599Z,22.25
2023-03-01T23:40:20.885Z,25.02
2023-03-01T23:45:22.950Z,19.38
2023-03-01T23:50:25.393Z,17.92
2023-03-01T23:55:29.751Z,17.23
